sensor_id;sensor_type;location;lat;lon;timestamp;pressure;altitude;pressure_sealevel;temperature;humidity
32083;BME280;18597;48.328;7.932;2023-03-23T00:01:21;98960.81;;;10.51;100.00
32083;BME280;18597;48.328;7.932;2023-03-23T00:03:51;98946.84;;;10.57;100.00
32083;BME280;18597;48.328;7.932;2023-03-23T00:06:19;98954.59;;;10.61;100.00
32083;BME280;18597;48.328;7.932;2023-03-23T00:08:48;98940.41;;;10.60;100.00
32083;BME280;18597;48.328;7.932;2023-03-23T00:11:21;98951.34;;;10.67;100.00
32083;BME280;18597;48.328;7.932;2023-03-23T00:13:50;98946.53;;;10.70;100.00
32083;BME280;18597;48.328;7.932;2023-03-23T00:16:19;98943.25;;;10.76;100.00
32083;BME280;18597;48.328;7.932;2023-03-23T00:18:50;98942.47;;;10.66;100.00
32083;BME280;18597;48.328;7.932;2023-03-23T00:21:21;98946.44;;;10.62;100.00
32083;BME280;18597;48.328;7.932;2023-03-23T00:23:51;98931.72;;;10.58;100.00
32083;BME280;18597;48.328;7.932;2023-03-23T00:26:17;98932.66;;;10.57;100.00
32083;BME280;18597;48.328;7.932;2023-03-23T00:28:44;98929.88;;;10.59;100.00
32083;BME280;18597;48.328;7.932;2023-03-23T00:31:13;98929.13;;;10.66;100.00
32083;BME280;18597;48.328;7.932;2023-03-23T00:33:39;98927.13;;;10.68;100.00
32083;BME280;18597;48.328;7.932;2023-03-23T00:36:09;98927.13;;;10.68;100.00
32083;BME280;18597;48.328;7.932;2023-03-23T00:38:36;98926.56;;;10.74;100.00
32083;BME280;18597;48.328;7.932;2023-03-23T00:41:03;98925.41;;;10.77;100.00
32083;BME280;18597;48.328;7.932;2023-03-23T00:43:30;98930.16;;;10.83;100.00
32083;BME280;18597;48.328;7.932;2023-03-23T00:45:58;98926.09;;;10.79;100.00
32083;BME280;18597;48.328;7.932;2023-03-23T00:48:28;98925.94;;;10.80;100.00
32083;BME280;18597;48.328;7.932;2023-03-23T00:50:55;98916.94;;;10.81;100.00
32083;BME280;18597;48.328;7.932;2023-03-23T00:53:22;98913.88;;;10.76;100.00
32083;BME280;18597;48.328;7.932;2023-03-23T00:55:49;98909.06;;;10.80;100.00
32083;BME280;18597;48.328;7.932;2023-03-23T00:58:16;98912.56;;;10.80;100.00
32083;BME280;18597;48.328;7.932;2023-03-23T01:00:43;98915.25;;;10.80;100.00
32083;BME280;18597;48.328;7.932;2023-03-23T01:03:09;98912.44;;;10.82;100.00
32083;BME280;18597;48.328;7.932;2023-03-23T01:05:44;98916.78;;;10.83;100.00
32083;BME280;18597;48.328;7.932;2023-03-23T01:08:13;98915.25;;;10.80;100.00
32083;BME280;18597;48.328;7.932;2023-03-23T01:10:40;98901.03;;;10.80;100.00
32083;BME280;18597;48.328;7.932;2023-03-23T01:13:07;98903.88;;;10.78;100.00
32083;BME280;18597;48.328;7.932;2023-03-23T01:15:33;98902.44;;;10.84;100.00
32083;BME280;18597;48.328;7.932;2023-03-23T01:17:59;98890.59;;;10.87;100.00
32083;BME280;18597;48.328;7.932;2023-03-23T01:20:25;98887.25;;;10.84;100.00
32083;BME280;18597;48.328;7.932;2023-03-23T01:22:54;98885.56;;;10.83;100.00
32083;BME280;18597;48.328;7.932;2023-03-23T01:25:28;98889.38;;;10.81;100.00
32083;BME280;18597;48.328;7.932;2023-03-23T01:27:55;98879.97;;;10.77;100.00
32083;BME280;18597;48.328;7.932;2023-03-23T01:30:21;98873.66;;;10.78;100.00
32083;BME280;18597;48.328;7.932;2023-03-23T01:32:47;98867.84;;;10.82;100.00
32083;BME280;18597;48.328;7.932;2023-03-23T01:35:13;98868.53;;;10.84;100.00
32083;BME280;18597;48.328;7.932;2023-03-23T01:37:39;98863.97;;;10.95;100.00
32083;BME280;18597;48.328;7.932;2023-03-23T01:40:06;98863.72;;;10.88;100.00
32083;BME280;18597;48.328;7.932;2023-03-23T01:42:36;98862.84;;;10.97;100.00
32083;BME280;18597;48.328;7.932;2023-03-23T01:45:27;98864.34;;;11.00;100.00
32083;BME280;18597;48.328;7.932;2023-03-23T01:48:03;98870.25;;;11.03;100.00
32083;BME280;18597;48.328;7.932;2023-03-23T01:50:36;98863.19;;;11.02;100.00
32083;BME280;18597;48.328;7.932;2023-03-23T01:53:06;98851.66;;;11.02;100.00
32083;BME280;18597;48.328;7.932;2023-03-23T01:55:36;98847.03;;;11.04;100.00
32083;BME280;18597;48.328;7.932;2023-03-23T01:58:05;98853.97;;;10.97;100.00
32083;BME280;18597;48.328;7.932;2023-03-23T02:00:32;98859.09;;;10.90;100.00
32083;BME280;18597;48.328;7.932;2023-03-23T02:03:00;98859.78;;;10.92;100.00
32083;BME280;18597;48.328;7.932;2023-03-23T02:05:32;98855.81;;;10.96;100.00
32083;BME280;18597;48.328;7.932;2023-03-23T02:08:01;98852.97;;;10.98;100.00
32083;BME280;18597;48.328;7.932;2023-03-23T02:10:30;98832.13;;;11.01;100.00
32083;BME280;18597;48.328;7.932;2023-03-23T02:12:58;98823.44;;;10.99;100.00
32083;BME280;18597;48.328;7.932;2023-03-23T02:15:48;98831.50;;;11.07;100.00
32083;BME280;18597;48.328;7.932;2023-03-23T02:25:41;98806.34;;;11.18;100.00
32083;BME280;18597;48.328;7.932;2023-03-23T02:31:56;98806.53;;;11.17;100.00
32083;BME280;18597;48.328;7.932;2023-03-23T02:34:33;98802.41;;;11.22;100.00
32083;BME280;18597;48.328;7.932;2023-03-23T02:37:08;98808.34;;;11.34;100.00
32083;BME280;18597;48.328;7.932;2023-03-23T02:39:44;98805.56;;;11.44;100.00
32083;BME280;18597;48.328;7.932;2023-03-23T02:42:17;98797.66;;;11.60;100.00
32083;BME280;18597;48.328;7.932;2023-03-23T02:44:46;98791.81;;;11.64;100.00
32083;BME280;18597;48.328;7.932;2023-03-23T02:47:20;98801.47;;;11.57;100.00
32083;BME280;18597;48.328;7.932;2023-03-23T02:49:51;98801.16;;;11.60;100.00
32083;BME280;18597;48.328;7.932;2023-03-23T02:52:24;98809.91;;;11.71;100.00
32083;BME280;18597;48.328;7.932;2023-03-23T02:54:53;98801.03;;;11.70;100.00
32083;BME280;18597;48.328;7.932;2023-03-23T02:57:20;98793.38;;;11.75;100.00
32083;BME280;18597;48.328;7.932;2023-03-23T02:59:50;98794.88;;;11.96;100.00
32083;BME280;18597;48.328;7.932;2023-03-23T03:02:21;98786.78;;;11.87;100.00
32083;BME280;18597;48.328;7.932;2023-03-23T03:05:20;98784.84;;;11.72;100.00
32083;BME280;18597;48.328;7.932;2023-03-23T03:08:00;98786.19;;;11.76;100.00
32083;BME280;18597;48.328;7.932;2023-03-23T03:11:09;98786.44;;;11.82;100.00
32083;BME280;18597;48.328;7.932;2023-03-23T03:14:17;98773.16;;;11.73;100.00
32083;BME280;18597;48.328;7.932;2023-03-23T03:16:56;98776.31;;;11.76;100.00
32083;BME280;18597;48.328;7.932;2023-03-23T03:19:37;98769.97;;;11.77;100.00
32083;BME280;18597;48.328;7.932;2023-03-23T03:22:04;98777.72;;;11.80;100.00
32083;BME280;18597;48.328;7.932;2023-03-23T03:24:31;98772.97;;;11.74;100.00
32083;BME280;18597;48.328;7.932;2023-03-23T03:27:00;98772.22;;;11.82;100.00
32083;BME280;18597;48.328;7.932;2023-03-23T03:29:34;98766.38;;;11.86;100.00
32083;BME280;18597;48.328;7.932;2023-03-23T03:32:03;98764.19;;;11.82;100.00
32083;BME280;18597;48.328;7.932;2023-03-23T03:34:33;98758.63;;;12.09;100.00
32083;BME280;18597;48.328;7.932;2023-03-23T03:36:59;98763.22;;;12.33;100.00
32083;BME280;18597;48.328;7.932;2023-03-23T03:39:27;98760.38;;;12.51;100.00
32083;BME280;18597;48.328;7.932;2023-03-23T03:41:54;98766.75;;;12.50;100.00
32083;BME280;18597;48.328;7.932;2023-03-23T03:44:21;98773.97;;;12.58;100.00
32083;BME280;18597;48.328;7.932;2023-03-23T03:46:46;98766.22;;;12.46;100.00
32083;BME280;18597;48.328;7.932;2023-03-23T03:49:12;98765.06;;;12.41;100.00
32083;BME280;18597;48.328;7.932;2023-03-23T03:51:40;98763.59;;;12.63;100.00
32083;BME280;18597;48.328;7.932;2023-03-23T03:54:06;98768.59;;;12.41;100.00
32083;BME280;18597;48.328;7.932;2023-03-23T03:56:32;98755.84;;;12.43;100.00
32083;BME280;18597;48.328;7.932;2023-03-23T03:59:03;98752.19;;;12.53;100.00
32083;BME280;18597;48.328;7.932;2023-03-23T04:01:29;98761.56;;;12.40;100.00
32083;BME280;18597;48.328;7.932;2023-03-23T04:03:55;98758.50;;;12.35;100.00
32083;BME280;18597;48.328;7.932;2023-03-23T04:06:22;98757.22;;;12.47;100.00
32083;BME280;18597;48.328;7.932;2023-03-23T04:08:49;98761.88;;;12.45;100.00
32083;BME280;18597;48.328;7.932;2023-03-23T04:11:15;98757.69;;;12.35;100.00
32083;BME280;18597;48.328;7.932;2023-03-23T04:13:41;98747.66;;;12.53;100.00
32083;BME280;18597;48.328;7.932;2023-03-23T04:16:08;98754.53;;;12.39;100.00
32083;BME280;18597;48.328;7.932;2023-03-23T04:18:35;98752.69;;;12.40;100.00
32083;BME280;18597;48.328;7.932;2023-03-23T04:21:02;98762.88;;;12.44;100.00
32083;BME280;18597;48.328;7.932;2023-03-23T04:23:31;98759.56;;;12.50;100.00
32083;BME280;18597;48.328;7.932;2023-03-23T04:25:59;98766.03;;;12.32;100.00
32083;BME280;18597;48.328;7.932;2023-03-23T04:28:26;98768.84;;;12.22;100.00
32083;BME280;18597;48.328;7.932;2023-03-23T04:30:53;98762.16;;;12.18;100.00
32083;BME280;18597;48.328;7.932;2023-03-23T04:33:23;98767.84;;;12.23;100.00
32083;BME280;18597;48.328;7.932;2023-03-23T04:35:52;98777.06;;;12.20;100.00
32083;BME280;18597;48.328;7.932;2023-03-23T04:38:19;98773.81;;;12.09;100.00
32083;BME280;18597;48.328;7.932;2023-03-23T04:40:47;98766.59;;;12.01;100.00
32083;BME280;18597;48.328;7.932;2023-03-23T04:43:13;98775.81;;;12.07;100.00
32083;BME280;18597;48.328;7.932;2023-03-23T04:45:40;98771.84;;;12.11;100.00
32083;BME280;18597;48.328;7.932;2023-03-23T04:48:11;98767.69;;;12.25;100.00
32083;BME280;18597;48.328;7.932;2023-03-23T04:50:37;98768.59;;;12.41;100.00
32083;BME280;18597;48.328;7.932;2023-03-23T04:53:04;98775.78;;;12.41;100.00
32083;BME280;18597;48.328;7.932;2023-03-23T04:55:32;98781.44;;;12.30;100.00
32083;BME280;18597;48.328;7.932;2023-03-23T04:58:04;98782.91;;;12.24;100.00
32083;BME280;18597;48.328;7.932;2023-03-23T05:00:32;98784.84;;;12.48;100.00
32083;BME280;18597;48.328;7.932;2023-03-23T05:02:58;98793.19;;;12.53;100.00
32083;BME280;18597;48.328;7.932;2023-03-23T05:05:24;98790.38;;;12.55;100.00
32083;BME280;18597;48.328;7.932;2023-03-23T05:07:51;98790.91;;;12.66;100.00
32083;BME280;18597;48.328;7.932;2023-03-23T05:10:17;98786.06;;;13.11;96.20
32083;BME280;18597;48.328;7.932;2023-03-23T05:12:44;98792.47;;;13.26;90.02
32083;BME280;18597;48.328;7.932;2023-03-23T05:15:12;98791.59;;;13.58;86.96
32083;BME280;18597;48.328;7.932;2023-03-23T05:17:39;98780.22;;;13.40;90.89
32083;BME280;18597;48.328;7.932;2023-03-23T05:20:07;98787.59;;;13.21;96.47
32083;BME280;18597;48.328;7.932;2023-03-23T05:22:35;98781.88;;;13.57;83.53
32083;BME280;18597;48.328;7.932;2023-03-23T05:25:02;98796.13;;;13.49;85.95
32083;BME280;18597;48.328;7.932;2023-03-23T05:27:29;98797.81;;;13.34;93.40
32083;BME280;18597;48.328;7.932;2023-03-23T05:29:57;98780.06;;;13.25;99.11
32083;BME280;18597;48.328;7.932;2023-03-23T05:32:25;98796.81;;;13.19;100.00
32083;BME280;18597;48.328;7.932;2023-03-23T05:34:57;98800.16;;;13.13;100.00
32083;BME280;18597;48.328;7.932;2023-03-23T05:37:25;98794.78;;;13.13;98.01
32083;BME280;18597;48.328;7.932;2023-03-23T05:39:52;98806.91;;;13.25;95.09
32083;BME280;18597;48.328;7.932;2023-03-23T05:42:21;98801.84;;;13.22;96.21
32083;BME280;18597;48.328;7.932;2023-03-23T05:44:49;98805.69;;;13.19;96.15
32083;BME280;18597;48.328;7.932;2023-03-23T05:47:15;98812.59;;;13.30;96.95
32083;BME280;18597;48.328;7.932;2023-03-23T05:49:41;98810.22;;;13.43;91.01
32083;BME280;18597;48.328;7.932;2023-03-23T05:52:07;98825.25;;;13.85;80.39
32083;BME280;18597;48.328;7.932;2023-03-23T05:54:33;98830.94;;;13.82;81.43
32083;BME280;18597;48.328;7.932;2023-03-23T05:57:00;98843.69;;;13.88;83.63
32083;BME280;18597;48.328;7.932;2023-03-23T05:59:25;98852.41;;;13.90;76.16
32083;BME280;18597;48.328;7.932;2023-03-23T06:01:52;98862.75;;;14.18;75.54
32083;BME280;18597;48.328;7.932;2023-03-23T06:04:20;98861.25;;;14.15;80.49
32083;BME280;18597;48.328;7.932;2023-03-23T06:06:46;98844.44;;;14.29;74.48
32083;BME280;18597;48.328;7.932;2023-03-23T06:09:12;98844.97;;;14.16;81.59
32083;BME280;18597;48.328;7.932;2023-03-23T06:11:38;98854.69;;;14.18;84.82
32083;BME280;18597;48.328;7.932;2023-03-23T06:14:04;98861.88;;;14.25;85.25
32083;BME280;18597;48.328;7.932;2023-03-23T06:16:30;98853.84;;;14.17;86.65
32083;BME280;18597;48.328;7.932;2023-03-23T06:18:55;98864.53;;;14.33;77.01
32083;BME280;18597;48.328;7.932;2023-03-23T06:21:23;98878.38;;;14.22;80.95
32083;BME280;18597;48.328;7.932;2023-03-23T06:23:48;98880.47;;;14.51;73.97
32083;BME280;18597;48.328;7.932;2023-03-23T06:26:18;98873.06;;;14.45;78.08
32083;BME280;18597;48.328;7.932;2023-03-23T06:28:45;98875.78;;;14.37;80.16
32083;BME280;18597;48.328;7.932;2023-03-23T06:31:11;98875.13;;;14.35;81.34
32083;BME280;18597;48.328;7.932;2023-03-23T06:33:38;98866.41;;;14.33;80.71
32083;BME280;18597;48.328;7.932;2023-03-23T06:36:05;98877.94;;;14.50;80.73
32083;BME280;18597;48.328;7.932;2023-03-23T06:38:32;98875.75;;;14.45;81.08
32083;BME280;18597;48.328;7.932;2023-03-23T06:40:58;98880.66;;;14.33;81.90
32083;BME280;18597;48.328;7.932;2023-03-23T06:43:24;98876.13;;;14.34;83.76
32083;BME280;18597;48.328;7.932;2023-03-23T06:45:50;98880.88;;;14.24;86.03
32083;BME280;18597;48.328;7.932;2023-03-23T06:48:17;98876.69;;;14.21;92.04
32083;BME280;18597;48.328;7.932;2023-03-23T06:50:44;98886.94;;;14.18;91.86
32083;BME280;18597;48.328;7.932;2023-03-23T06:53:11;98899.38;;;14.10;90.33
32083;BME280;18597;48.328;7.932;2023-03-23T06:55:38;98904.41;;;14.05;90.04
32083;BME280;18597;48.328;7.932;2023-03-23T06:58:05;98909.78;;;14.13;92.63
32083;BME280;18597;48.328;7.932;2023-03-23T07:00:33;98923.72;;;14.01;95.87
32083;BME280;18597;48.328;7.932;2023-03-23T07:02:59;98928.47;;;13.91;98.99
32083;BME280;18597;48.328;7.932;2023-03-23T07:05:25;98916.53;;;13.85;100.00
32083;BME280;18597;48.328;7.932;2023-03-23T07:07:52;98932.31;;;13.80;100.00
32083;BME280;18597;48.328;7.932;2023-03-23T07:10:18;98928.13;;;13.85;100.00
32083;BME280;18597;48.328;7.932;2023-03-23T07:12:44;98929.63;;;13.88;100.00
32083;BME280;18597;48.328;7.932;2023-03-23T07:15:10;98926.59;;;13.91;100.00
32083;BME280;18597;48.328;7.932;2023-03-23T07:17:37;98918.19;;;14.02;100.00
32083;BME280;18597;48.328;7.932;2023-03-23T07:20:05;98922.41;;;13.88;100.00
32083;BME280;18597;48.328;7.932;2023-03-23T07:22:31;98925.25;;;13.95;100.00
32083;BME280;18597;48.328;7.932;2023-03-23T07:24:57;98931.63;;;14.02;100.00
32083;BME280;18597;48.328;7.932;2023-03-23T07:27:23;98937.63;;;14.12;97.14
32083;BME280;18597;48.328;7.932;2023-03-23T07:29:50;98947.84;;;14.25;93.60
32083;BME280;18597;48.328;7.932;2023-03-23T07:32:16;98951.06;;;14.29;97.17
32083;BME280;18597;48.328;7.932;2023-03-23T07:34:42;98945.69;;;14.29;97.38
32083;BME280;18597;48.328;7.932;2023-03-23T07:37:08;98960.22;;;14.42;97.88
32083;BME280;18597;48.328;7.932;2023-03-23T07:39:34;98959.94;;;14.46;92.07
32083;BME280;18597;48.328;7.932;2023-03-23T07:42:00;98964.78;;;14.42;97.70
32083;BME280;18597;48.328;7.932;2023-03-23T07:44:27;98976.56;;;14.33;100.00
32083;BME280;18597;48.328;7.932;2023-03-23T07:46:53;98964.63;;;14.27;100.00
32083;BME280;18597;48.328;7.932;2023-03-23T07:49:21;98957.25;;;14.37;97.71
32083;BME280;18597;48.328;7.932;2023-03-23T07:51:47;98967.81;;;14.39;92.97
32083;BME280;18597;48.328;7.932;2023-03-23T07:54:13;98972.84;;;14.50;98.54
32083;BME280;18597;48.328;7.932;2023-03-23T07:56:40;98968.47;;;14.49;100.00
32083;BME280;18597;48.328;7.932;2023-03-23T07:59:07;98976.91;;;14.46;100.00
32083;BME280;18597;48.328;7.932;2023-03-23T08:01:33;98975.53;;;14.42;100.00
32083;BME280;18597;48.328;7.932;2023-03-23T08:04:00;98977.03;;;14.44;100.00
32083;BME280;18597;48.328;7.932;2023-03-23T08:06:27;98983.59;;;14.50;100.00
32083;BME280;18597;48.328;7.932;2023-03-23T08:08:53;98977.72;;;14.55;100.00
32083;BME280;18597;48.328;7.932;2023-03-23T08:11:20;98983.44;;;14.43;100.00
32083;BME280;18597;48.328;7.932;2023-03-23T08:13:46;98975.22;;;14.53;100.00
32083;BME280;18597;48.328;7.932;2023-03-23T08:16:12;98977.50;;;14.64;100.00
32083;BME280;18597;48.328;7.932;2023-03-23T08:18:39;98982.53;;;14.76;100.00
32083;BME280;18597;48.328;7.932;2023-03-23T08:21:06;98984.81;;;14.87;100.00
32083;BME280;18597;48.328;7.932;2023-03-23T08:23:36;98977.38;;;15.05;100.00
32083;BME280;18597;48.328;7.932;2023-03-23T08:26:05;98977.97;;;15.15;100.00
32083;BME280;18597;48.328;7.932;2023-03-23T08:28:34;98977.78;;;15.17;100.00
32083;BME280;18597;48.328;7.932;2023-03-23T08:31:07;98991.28;;;15.09;100.00
32083;BME280;18597;48.328;7.932;2023-03-23T08:33:33;98984.41;;;15.06;96.21
32083;BME280;18597;48.328;7.932;2023-03-23T08:36:00;99004.28;;;14.97;100.00
32083;BME280;18597;48.328;7.932;2023-03-23T08:38:27;99014.22;;;14.96;99.78
32083;BME280;18597;48.328;7.932;2023-03-23T08:40:59;99012.50;;;14.95;100.00
32083;BME280;18597;48.328;7.932;2023-03-23T08:43:25;99022.44;;;14.95;100.00
32083;BME280;18597;48.328;7.932;2023-03-23T08:45:51;99016.03;;;14.96;100.00
32083;BME280;18597;48.328;7.932;2023-03-23T08:48:17;99022.41;;;15.03;100.00
32083;BME280;18597;48.328;7.932;2023-03-23T08:50:43;99006.91;;;15.13;100.00
32083;BME280;18597;48.328;7.932;2023-03-23T08:53:09;99003.81;;;15.24;100.00
32083;BME280;18597;48.328;7.932;2023-03-23T08:55:37;99008.81;;;15.05;100.00
32083;BME280;18597;48.328;7.932;2023-03-23T08:58:04;99015.31;;;15.10;100.00
32083;BME280;18597;48.328;7.932;2023-03-23T09:00:30;99010.03;;;15.25;100.00
32083;BME280;18597;48.328;7.932;2023-03-23T09:02:56;99017.91;;;15.35;100.00
32083;BME280;18597;48.328;7.932;2023-03-23T09:05:25;99014.63;;;15.47;100.00
32083;BME280;18597;48.328;7.932;2023-03-23T09:07:55;99011.97;;;15.70;100.00
32083;BME280;18597;48.328;7.932;2023-03-23T09:10:22;99019.41;;;15.91;99.44
32083;BME280;18597;48.328;7.932;2023-03-23T09:12:51;99014.03;;;16.29;99.55
32083;BME280;18597;48.328;7.932;2023-03-23T09:15:18;99015.94;;;16.58;95.78
32083;BME280;18597;48.328;7.932;2023-03-23T09:17:49;99017.94;;;16.79;91.30
32083;BME280;18597;48.328;7.932;2023-03-23T09:20:20;99006.84;;;17.18;90.15
32083;BME280;18597;48.328;7.932;2023-03-23T09:22:49;99000.63;;;17.75;83.06
32083;BME280;18597;48.328;7.932;2023-03-23T09:25:19;99000.06;;;17.80;76.45
32083;BME280;18597;48.328;7.932;2023-03-23T09:27:49;99011.69;;;18.23;77.92
32083;BME280;18597;48.328;7.932;2023-03-23T09:30:20;99014.91;;;18.33;71.60
32083;BME280;18597;48.328;7.932;2023-03-23T09:32:47;99009.75;;;18.66;68.73
32083;BME280;18597;48.328;7.932;2023-03-23T09:35:14;99004.78;;;18.70;66.85
32083;BME280;18597;48.328;7.932;2023-03-23T09:37:43;99003.00;;;18.55;68.07
32083;BME280;18597;48.328;7.932;2023-03-23T09:40:17;99007.91;;;18.67;64.18
32083;BME280;18597;48.328;7.932;2023-03-23T09:48:58;99008.75;;;19.08;57.88
32083;BME280;18597;48.328;7.932;2023-03-23T09:51:52;99017.06;;;19.07;60.14
32083;BME280;18597;48.328;7.932;2023-03-23T09:54:57;99019.72;;;19.41;59.50
32083;BME280;18597;48.328;7.932;2023-03-23T10:00:18;99015.09;;;19.90;54.72
32083;BME280;18597;48.328;7.932;2023-03-23T10:03:11;99019.88;;;19.94;52.79
32083;BME280;18597;48.328;7.932;2023-03-23T10:05:47;99022.59;;;20.08;52.06
32083;BME280;18597;48.328;7.932;2023-03-23T10:08:18;99020.75;;;20.15;52.12
32083;BME280;18597;48.328;7.932;2023-03-23T10:17:13;99012.97;;;20.98;48.02
32083;BME280;18597;48.328;7.932;2023-03-23T10:19:57;99022.47;;;21.27;48.00
32083;BME280;18597;48.328;7.932;2023-03-23T10:22:32;99015.63;;;21.18;47.37
32083;BME280;18597;48.328;7.932;2023-03-23T10:25:22;99006.00;;;21.15;46.86
32083;BME280;18597;48.328;7.932;2023-03-23T10:28:12;99018.03;;;21.46;46.42
32083;BME280;18597;48.328;7.932;2023-03-23T10:30:44;99012.75;;;21.57;45.71
32083;BME280;18597;48.328;7.932;2023-03-23T10:33:21;99000.53;;;21.73;45.17
32083;BME280;18597;48.328;7.932;2023-03-23T10:38:58;99008.28;;;21.31;43.81
32083;BME280;18597;48.328;7.932;2023-03-23T10:41:25;99008.88;;;21.40;45.12
32083;BME280;18597;48.328;7.932;2023-03-23T10:43:51;99009.81;;;21.59;44.28
32083;BME280;18597;48.328;7.932;2023-03-23T10:46:45;99001.63;;;21.66;43.72
32083;BME280;18597;48.328;7.932;2023-03-23T10:49:20;99003.09;;;22.00;44.31
32083;BME280;18597;48.328;7.932;2023-03-23T10:52:20;99002.19;;;22.06;41.90
32083;BME280;18597;48.328;7.932;2023-03-23T10:54:56;99000.91;;;22.40;41.83
32083;BME280;18597;48.328;7.932;2023-03-23T10:57:27;98999.75;;;22.97;42.07
32083;BME280;18597;48.328;7.932;2023-03-23T11:03:24;98994.13;;;23.77;39.23
32083;BME280;18597;48.328;7.932;2023-03-23T11:05:59;98999.97;;;23.81;39.34
32083;BME280;18597;48.328;7.932;2023-03-23T11:08:37;98994.19;;;24.01;38.79
32083;BME280;18597;48.328;7.932;2023-03-23T11:11:15;98996.03;;;24.30;38.28
32083;BME280;18597;48.328;7.932;2023-03-23T11:13:46;99000.22;;;24.68;37.88
32083;BME280;18597;48.328;7.932;2023-03-23T11:16:33;98998.69;;;24.72;36.26
32083;BME280;18597;48.328;7.932;2023-03-23T11:19:14;98992.47;;;24.30;37.61
32083;BME280;18597;48.328;7.932;2023-03-23T11:21:49;98988.22;;;23.80;37.43
32083;BME280;18597;48.328;7.932;2023-03-23T11:24:15;98994.09;;;23.47;38.93
32083;BME280;18597;48.328;7.932;2023-03-23T11:26:44;98995.00;;;23.41;39.40
32083;BME280;18597;48.328;7.932;2023-03-23T11:29:20;98990.50;;;23.17;39.26
32083;BME280;18597;48.328;7.932;2023-03-23T11:32:00;98996.72;;;22.81;39.75
32083;BME280;18597;48.328;7.932;2023-03-23T11:34:34;98994.88;;;22.56;39.49
32083;BME280;18597;48.328;7.932;2023-03-23T11:37:14;98997.16;;;22.59;40.11
32083;BME280;18597;48.328;7.932;2023-03-23T11:42:55;99005.88;;;22.68;39.83
32083;BME280;18597;48.328;7.932;2023-03-23T11:48:30;99001.00;;;22.95;38.84
32083;BME280;18597;48.328;7.932;2023-03-23T11:56:43;99009.13;;;22.33;39.51
32083;BME280;18597;48.328;7.932;2023-03-23T11:59:16;98990.78;;;21.91;40.31
32083;BME280;18597;48.328;7.932;2023-03-23T12:05:03;98995.84;;;21.87;41.21
32083;BME280;18597;48.328;7.932;2023-03-23T12:08:24;98985.72;;;22.01;40.61
32083;BME280;18597;48.328;7.932;2023-03-23T12:11:06;98979.53;;;22.19;40.58
32083;BME280;18597;48.328;7.932;2023-03-23T12:13:54;98972.38;;;22.24;40.62
32083;BME280;18597;48.328;7.932;2023-03-23T12:17:30;98969.81;;;22.29;39.51
32083;BME280;18597;48.328;7.932;2023-03-23T12:20:19;98972.19;;;22.44;41.19
32083;BME280;18597;48.328;7.932;2023-03-23T12:23:25;98969.44;;;22.69;41.10
32083;BME280;18597;48.328;7.932;2023-03-23T12:26:28;98967.22;;;22.59;40.25
32083;BME280;18597;48.328;7.932;2023-03-23T12:35:27;98951.59;;;23.88;38.87
32083;BME280;18597;48.328;7.932;2023-03-23T12:41:20;98950.84;;;23.03;38.01
32083;BME280;18597;48.328;7.932;2023-03-23T12:44:01;98948.03;;;23.09;39.01
32083;BME280;18597;48.328;7.932;2023-03-23T12:47:13;98941.44;;;23.35;38.39
32083;BME280;18597;48.328;7.932;2023-03-23T12:50:11;98941.31;;;23.42;38.68
32083;BME280;18597;48.328;7.932;2023-03-23T12:52:27;98941.22;;;23.67;38.64
32083;BME280;18597;48.328;7.932;2023-03-23T12:55:09;98937.00;;;23.04;38.46
32083;BME280;18597;48.328;7.932;2023-03-23T12:58:02;98923.69;;;23.14;39.22
32083;BME280;18597;48.328;7.932;2023-03-23T13:01:00;98924.63;;;23.20;38.84
32083;BME280;18597;48.328;7.932;2023-03-23T13:04:09;98916.59;;;23.55;38.50
32083;BME280;18597;48.328;7.932;2023-03-23T13:06:41;98917.03;;;23.70;38.34
32083;BME280;18597;48.328;7.932;2023-03-23T13:11:51;98911.56;;;23.70;38.90
32083;BME280;18597;48.328;7.932;2023-03-23T13:18:04;98910.56;;;23.53;38.24
32083;BME280;18597;48.328;7.932;2023-03-23T13:23:38;98911.75;;;23.27;38.46
32083;BME280;18597;48.328;7.932;2023-03-23T13:26:12;98905.84;;;23.30;38.79
32083;BME280;18597;48.328;7.932;2023-03-23T13:29:01;98902.53;;;23.28;38.38
32083;BME280;18597;48.328;7.932;2023-03-23T13:31:36;98904.72;;;23.49;37.48
32083;BME280;18597;48.328;7.932;2023-03-23T13:34:12;98893.97;;;23.54;37.41
32083;BME280;18597;48.328;7.932;2023-03-23T13:36:59;98896.13;;;23.64;37.23
32083;BME280;18597;48.328;7.932;2023-03-23T13:39:31;98899.47;;;23.66;36.88
32083;BME280;18597;48.328;7.932;2023-03-23T13:45:05;98894.63;;;23.38;37.17
32083;BME280;18597;48.328;7.932;2023-03-23T13:47:40;98890.25;;;23.07;37.23
32083;BME280;18597;48.328;7.932;2023-03-23T13:52:57;98888.03;;;22.79;37.44
32083;BME280;18597;48.328;7.932;2023-03-23T13:56:06;98880.19;;;22.89;37.52
32083;BME280;18597;48.328;7.932;2023-03-23T13:58:44;98887.22;;;22.60;37.23
32083;BME280;18597;48.328;7.932;2023-03-23T14:01:17;98882.66;;;22.36;37.93
32083;BME280;18597;48.328;7.932;2023-03-23T14:03:48;98878.16;;;22.30;37.82
32083;BME280;18597;48.328;7.932;2023-03-23T14:06:21;98880.16;;;22.34;37.81
32083;BME280;18597;48.328;7.932;2023-03-23T14:08:53;98873.91;;;22.34;38.18
32083;BME280;18597;48.328;7.932;2023-03-23T14:11:26;98862.19;;;22.15;37.68
32083;BME280;18597;48.328;7.932;2023-03-23T14:14:18;98867.47;;;21.53;38.37
32083;BME280;18597;48.328;7.932;2023-03-23T14:16:49;98863.66;;;21.61;39.21
32083;BME280;18597;48.328;7.932;2023-03-23T14:19:25;98848.84;;;21.57;38.90
32083;BME280;18597;48.328;7.932;2023-03-23T14:21:58;98862.19;;;21.27;39.09
32083;BME280;18597;48.328;7.932;2023-03-23T14:24:29;98858.03;;;21.24;39.32
32083;BME280;18597;48.328;7.932;2023-03-23T14:27:18;98851.16;;;21.22;39.03
32083;BME280;18597;48.328;7.932;2023-03-23T14:29:45;98846.53;;;21.22;39.28
32083;BME280;18597;48.328;7.932;2023-03-23T14:32:18;98843.28;;;21.07;39.05